createdAt,value
2019-03-21T00:02:03.361Z,103181.63
2019-03-21T00:04:31.885Z,103193.63
2019-03-21T00:07:00.549Z,103184.55
2019-03-21T00:09:29.000Z,103178.48
2019-03-21T00:12:08.933Z,103176.78
2019-03-21T00:14:55.865Z,103180.42
2019-03-21T00:17:36.306Z,103175.09
2019-03-21T00:20:07.805Z,103175.20
2019-03-21T00:22:36.270Z,103175.70
2019-03-21T00:25:08.380Z,103172.67
2019-03-21T00:27:37.033Z,103172.67
2019-03-21T00:30:17.122Z,103170.00
2019-03-21T00:32:45.570Z,103172.67
2019-03-21T00:35:14.072Z,103167.33
2019-03-21T00:37:42.551Z,103172.32
2019-03-21T00:40:17.236Z,103173.02
2019-03-21T00:42:45.847Z,103177.89
2019-03-21T00:45:16.650Z,103171.22
2019-03-21T00:47:46.607Z,103172.91
2019-03-21T00:50:27.226Z,103159.58
2019-03-21T00:52:56.606Z,103163.44
2019-03-21T00:55:28.262Z,103162.97
2019-03-21T00:57:58.624Z,103168.30
2019-03-21T01:00:30.633Z,103163.94
2019-03-21T01:02:59.358Z,103161.27
2019-03-21T01:05:27.922Z,103158.60
2019-03-21T01:07:56.382Z,103157.27
2019-03-21T01:10:27.968Z,103150.95
2019-03-21T01:12:56.447Z,103148.66
2019-03-21T01:15:24.887Z,103149.13
2019-03-21T01:17:53.340Z,103152.16
2019-03-21T01:20:21.779Z,103149.02
2019-03-21T01:22:50.585Z,103149.02
2019-03-21T01:25:31.223Z,103141.37
2019-03-21T01:27:59.639Z,103141.37
2019-03-21T01:30:28.094Z,103148.41
2019-03-21T01:32:56.544Z,103153.73
2019-03-21T01:35:24.994Z,103156.41
2019-03-21T01:37:53.579Z,103151.07
2019-03-21T01:40:33.633Z,103151.07
2019-03-21T01:43:02.346Z,103146.20
2019-03-21T01:45:31.809Z,103156.05
2019-03-21T01:48:00.244Z,103145.37
2019-03-21T01:50:33.839Z,103149.02
2019-03-21T01:53:02.280Z,103150.09
2019-03-21T01:55:30.889Z,103139.06
2019-03-21T01:58:00.181Z,103139.42
2019-03-21T02:00:37.049Z,103139.89
2019-03-21T02:03:06.308Z,103143.42
2019-03-21T02:05:34.749Z,103134.92
2019-03-21T02:08:03.199Z,103135.42
2019-03-21T02:10:31.860Z,103131.42
2019-03-21T02:13:00.298Z,103132.39
2019-03-21T02:15:28.741Z,103129.72
2019-03-21T02:17:57.391Z,103139.42
2019-03-21T02:20:26.073Z,103128.75
2019-03-21T02:22:54.501Z,103127.89
2019-03-21T02:25:37.513Z,103124.39
2019-03-21T02:28:06.231Z,103115.41
2019-03-21T02:30:38.924Z,103114.44
2019-03-21T02:33:16.461Z,103119.52
2019-03-21T02:35:44.958Z,103117.83
2019-03-21T02:38:13.398Z,103104.48
2019-03-21T02:40:43.874Z,103107.16
2019-03-21T02:43:12.859Z,103108.95
2019-03-21T02:45:41.503Z,103105.09
2019-03-21T02:48:09.998Z,103106.43
2019-03-21T02:50:41.051Z,103109.46
2019-03-21T02:53:09.547Z,103113.47
2019-03-21T02:55:37.951Z,103109.46
2019-03-21T02:58:06.825Z,103108.13
2019-03-21T03:00:42.770Z,103113.32
2019-03-21T03:03:11.367Z,103109.68
2019-03-21T09:21:43.932Z,103111.23
2019-03-21T11:51:48.421Z,103111.23
2019-03-21T11:54:17.730Z,103111.23
2019-03-21T11:56:46.300Z,103219.56
2019-03-21T11:59:14.685Z,103213.63
2019-03-21T12:01:43.118Z,103217.10
2019-03-21T12:04:11.881Z,103212.42
2019-03-21T12:06:40.344Z,103213.53
2019-03-21T12:09:08.838Z,103204.48
2019-03-21T12:11:37.294Z,103204.59
2019-03-21T12:14:05.749Z,103206.37
2019-03-21T12:16:34.187Z,103202.42
2019-03-21T12:19:02.758Z,103205.66
2019-03-21T12:21:31.441Z,103200.61
2019-03-21T12:23:59.859Z,103200.75
2019-03-21T12:26:28.414Z,103199.13
2019-03-21T12:28:56.865Z,103195.70
2019-03-21T12:31:25.332Z,103198.64
2019-03-21T12:33:53.873Z,103206.47
2019-03-21T12:36:23.955Z,103208.23
2019-03-21T12:38:52.404Z,103208.43
2019-03-21T12:41:20.988Z,103214.02
2019-03-21T12:43:49.794Z,103213.70
2019-03-21T12:46:18.236Z,103197.20
2019-03-21T12:48:47.204Z,103207.48
2019-03-21T12:51:15.639Z,103199.79
2019-03-21T12:53:44.134Z,103197.81
2019-03-21T12:56:12.862Z,103201.61
2019-03-21T12:58:41.296Z,103206.05
2019-03-21T13:01:09.723Z,103201.04
2019-03-21T13:03:38.240Z,103194.27
2019-03-21T13:06:06.724Z,103195.03
2019-03-21T13:08:35.306Z,103196.47
2019-03-21T13:11:03.767Z,103193.44
2019-03-21T13:13:32.211Z,103194.84
2019-03-21T13:16:00.650Z,103187.21
2019-03-21T13:18:29.143Z,103187.98
2019-03-21T13:20:57.586Z,103179.54
2019-03-21T13:23:26.149Z,103169.28
2019-03-21T13:25:54.692Z,103171.27
2019-03-21T13:28:23.129Z,103176.88
2019-03-21T13:30:51.765Z,103175.41
2019-03-21T13:33:20.716Z,103174.07
2019-03-21T13:35:49.192Z,103168.83
2019-03-21T13:38:17.717Z,103174.84
2019-03-21T13:40:46.241Z,103181.72
2019-03-21T13:43:14.685Z,103184.34
2019-03-21T13:45:43.122Z,103183.23
2019-03-21T13:48:11.609Z,103184.45
2019-03-21T13:50:40.157Z,103189.13
2019-03-21T13:53:18.241Z,103180.43
2019-03-21T13:55:39.147Z,103178.04
2019-03-21T13:58:07.585Z,103180.02
2019-03-21T14:00:36.228Z,103177.31
2019-03-21T14:03:04.935Z,103170.19
2019-03-21T14:05:33.434Z,103177.12
2019-03-21T14:08:01.870Z,103166.52
2019-03-21T14:10:32.345Z,103161.83
2019-03-21T14:13:00.888Z,103160.27
2019-03-21T14:15:29.527Z,103157.88
2019-03-21T14:17:58.003Z,103161.89
2019-03-21T14:20:26.445Z,103157.52
2019-03-21T14:22:55.027Z,103157.52
2019-03-21T14:25:23.526Z,103150.47
2019-03-21T14:27:52.050Z,103149.13
2019-03-21T14:30:20.481Z,103155.83
2019-03-21T14:32:49.104Z,103156.12
2019-03-21T14:35:17.689Z,103163.11
2019-03-21T14:37:46.127Z,103164.77
2019-03-21T14:40:15.945Z,103166.05
2019-03-21T14:42:44.742Z,103153.05
2019-03-21T14:45:15.572Z,103152.63
2019-03-21T14:47:44.356Z,103166.83
2019-03-21T14:50:14.746Z,103166.77
2019-03-21T14:52:43.239Z,103171.06
2019-03-21T14:55:13.892Z,103171.58
2019-03-21T14:57:42.482Z,103165.98
2019-03-21T15:00:19.469Z,103172.69
2019-03-21T15:02:47.953Z,103177.57
2019-03-21T15:05:17.100Z,103177.34
2019-03-21T15:07:45.730Z,103169.58
2019-03-21T15:10:18.549Z,103171.28
2019-03-21T15:12:47.006Z,103174.02
2019-03-21T15:15:16.242Z,103171.84
2019-03-21T15:17:44.668Z,103173.80
2019-03-21T15:20:17.541Z,103173.67
2019-03-21T15:22:46.513Z,103175.71
2019-03-21T15:25:15.202Z,103185.09
2019-03-21T15:27:43.782Z,103172.96
2019-03-21T15:30:18.855Z,103179.59
2019-03-21T15:32:47.592Z,103186.94
2019-03-21T15:35:18.065Z,103174.25
2019-03-21T15:37:46.554Z,103165.49
2019-03-21T15:40:17.070Z,103168.73
2019-03-21T15:42:45.653Z,103174.65
2019-03-21T15:45:22.638Z,103183.88
2019-03-21T15:47:46.469Z,103179.08
2019-03-21T15:50:37.631Z,103176.00
2019-03-21T15:53:07.078Z,103179.16
2019-03-21T15:55:37.861Z,103175.28
2019-03-21T15:58:07.168Z,103178.45
2019-03-21T16:00:40.570Z,103167.17
2019-03-21T16:03:10.574Z,103175.84
2019-03-21T16:05:39.687Z,103173.44
2019-03-21T16:08:09.391Z,103170.69
2019-03-21T16:10:38.739Z,103173.63
2019-03-21T16:13:07.298Z,103164.53
2019-03-21T16:15:35.951Z,103166.16
2019-03-21T16:18:04.917Z,103163.75
2019-03-21T16:20:33.732Z,103168.27
2019-03-21T16:23:02.180Z,103175.59
2019-03-21T16:25:30.679Z,103173.90
2019-03-21T16:27:59.150Z,103179.77
2019-03-21T16:30:27.601Z,103175.86
2019-03-21T16:32:57.577Z,103171.30
2019-03-21T16:35:26.090Z,103160.86
2019-03-21T16:37:54.557Z,103163.80
2019-03-21T16:40:22.979Z,103158.73
2019-03-21T16:42:51.541Z,103159.70
2019-03-21T16:45:21.174Z,103162.66
2019-03-21T16:47:50.116Z,103165.25
2019-03-21T16:50:18.563Z,103171.49
2019-03-21T16:52:47.051Z,103163.41
2019-03-21T16:55:15.905Z,103173.05
2019-03-21T16:57:44.394Z,103175.13
2019-03-21T17:00:18.130Z,103175.03
2019-03-21T17:02:47.974Z,103179.47
2019-03-21T17:05:16.638Z,103185.08
2019-03-21T17:07:45.061Z,103180.98
2019-03-21T17:10:16.007Z,103174.92
2019-03-21T17:12:44.651Z,103174.20
2019-03-21T17:15:14.113Z,103174.14
2019-03-21T17:17:42.768Z,103182.43
2019-03-21T17:20:13.232Z,103182.69
2019-03-21T17:22:41.727Z,103180.64
2019-03-21T17:25:10.523Z,103177.69
2019-03-21T17:27:38.987Z,103179.53
2019-03-21T17:30:09.836Z,103181.61
2019-03-21T17:32:38.435Z,103186.75
2019-03-21T17:35:07.605Z,103185.67
2019-03-21T17:37:36.291Z,103179.61
2019-03-21T17:40:08.110Z,103181.56
2019-03-21T17:42:36.552Z,103179.51
2019-03-21T17:45:07.679Z,103186.95
2019-03-21T17:47:36.164Z,103188.08
2019-03-21T17:50:06.452Z,103183.47
2019-03-21T17:52:37.083Z,103186.65
2019-03-21T17:55:08.074Z,103191.28
2019-03-21T17:57:36.585Z,103186.55
2019-03-21T18:00:14.494Z,103194.20
2019-03-21T18:02:43.738Z,103192.16
2019-03-21T18:05:13.558Z,103196.52
2019-03-21T18:07:42.489Z,103197.14
2019-03-21T18:10:16.547Z,103202.13
2019-03-21T18:12:45.120Z,103200.42
2019-03-21T18:15:13.586Z,103191.84
2019-03-21T18:17:42.030Z,103196.31
2019-03-21T18:20:10.772Z,103189.28
2019-03-21T18:22:39.232Z,103191.12
2019-03-21T18:25:07.904Z,103187.73
2019-03-21T18:27:36.356Z,103186.86
2019-03-21T18:30:07.836Z,103192.20
2019-03-21T18:32:36.456Z,103194.88
2019-03-21T18:35:06.394Z,103191.48
2019-03-21T18:37:34.977Z,103191.02
2019-03-21T18:40:03.766Z,103186.86
2019-03-21T18:42:32.940Z,103197.91
2019-03-21T18:45:01.656Z,103201.92
2019-03-21T18:47:30.311Z,103200.94
2019-03-21T18:49:58.911Z,103203.50
2019-03-21T18:52:27.379Z,103198.63
2019-03-21T18:55:05.790Z,103198.63
2019-03-21T18:57:26.925Z,103196.94
2019-03-21T18:59:55.496Z,103192.92
2019-03-21T19:02:23.927Z,103199.25
2019-03-21T19:04:52.675Z,103197.91
2019-03-21T19:07:21.147Z,103195.59
2019-03-21T19:09:49.605Z,103198.63
2019-03-21T19:12:18.097Z,103199.25
2019-03-21T19:14:46.584Z,103195.74
2019-03-21T19:17:15.034Z,103198.27
2019-03-21T19:19:43.476Z,103204.95
2019-03-21T19:22:11.921Z,103209.83
2019-03-21T19:24:40.367Z,103217.59
2019-03-21T19:27:08.837Z,103214.20
2019-03-21T19:29:37.716Z,103211.17
2019-03-21T19:32:06.142Z,103217.48
2019-03-21T19:34:34.623Z,103215.79
2019-03-21T19:37:03.367Z,103215.07
2019-03-21T19:39:31.909Z,103211.68
2019-03-21T19:42:00.349Z,103210.02
2019-03-21T19:44:28.840Z,103223.98
2019-03-21T19:46:57.519Z,103228.00
2019-03-21T19:49:26.210Z,103219.98
2019-03-21T19:51:54.699Z,103222.66
2019-03-21T19:54:23.124Z,103220.09
2019-03-21T19:56:51.606Z,103217.31
2019-03-21T19:59:20.069Z,103221.93
2019-03-21T20:01:48.555Z,103225.69
2019-03-21T20:04:17.044Z,103221.82
2019-03-21T20:06:45.483Z,103231.17
2019-03-21T20:09:14.329Z,103233.13
2019-03-21T20:11:42.945Z,103237.13
2019-03-21T20:14:11.427Z,103234.45
2019-03-21T20:16:39.836Z,103240.77
2019-03-21T20:19:08.795Z,103245.61
2019-03-21T20:21:47.319Z,103245.14
2019-03-21T20:24:07.574Z,103244.78
2019-03-21T20:26:36.044Z,103239.44
2019-03-21T20:29:04.607Z,103242.11
2019-03-21T20:31:33.406Z,103243.45
2019-03-21T20:34:01.921Z,103235.91
2019-03-21T20:36:30.554Z,103245.75
2019-03-21T20:38:58.990Z,103247.45
2019-03-21T20:41:27.472Z,103251.45
2019-03-21T20:43:56.054Z,103250.13
2019-03-21T20:46:24.541Z,103252.80
2019-03-21T20:48:52.032Z,103259.11
2019-03-21T20:51:20.596Z,103257.41
2019-03-21T20:53:49.144Z,103259.72
2019-03-21T20:56:18.207Z,103266.40
2019-03-21T20:58:46.639Z,103264.34
2019-03-21T21:01:15.217Z,103264.95
2019-03-21T21:03:43.923Z,103277.33
2019-03-21T21:06:12.429Z,103275.63
2019-03-21T21:08:40.891Z,103276.61
2019-03-21T21:11:09.365Z,103278.92
2019-03-21T21:13:37.804Z,103273.94
2019-03-21T21:16:06.421Z,103270.55
2019-03-21T21:18:34.886Z,103270.55
2019-03-21T21:21:03.658Z,103272.48
2019-03-21T21:23:32.082Z,103266.31
2019-03-21T21:26:05.349Z,103273.97
2019-03-21T21:28:31.078Z,103266.67
2019-03-21T21:30:59.504Z,103267.28
2019-03-21T21:33:28.145Z,103264.53
2019-03-21T21:35:56.581Z,103259.44
2019-03-21T21:38:25.018Z,103260.41
2019-03-21T21:40:53.515Z,103257.74
2019-03-21T21:43:21.952Z,103257.74
2019-03-21T21:45:50.398Z,103255.08
2019-03-21T21:48:18.874Z,103247.53
2019-03-21T21:50:47.499Z,103259.08
2019-03-21T21:53:15.945Z,103256.41
2019-03-21T21:55:44.609Z,103255.69
2019-03-21T21:58:13.066Z,103254.82
2019-03-21T22:00:41.804Z,103245.62
2019-03-21T22:03:10.550Z,103249.26
2019-03-21T22:05:38.999Z,103246.59
2019-03-21T22:08:07.455Z,103254.59
2019-03-21T22:10:36.003Z,103248.89
2019-03-21T22:13:04.441Z,103246.70
2019-03-21T22:15:32.871Z,103242.22
2019-03-21T22:18:01.448Z,103246.83
2019-03-21T22:20:29.913Z,103245.14
2019-03-21T22:22:58.609Z,103243.44
2019-03-21T22:25:27.065Z,103246.11
2019-03-21T22:27:56.065Z,103245.75
2019-03-21T22:30:24.530Z,103242.72
2019-03-21T22:32:52.993Z,103239.32
2019-03-21T22:35:21.453Z,103241.27
2019-03-21T22:37:49.926Z,103245.05
2019-03-21T22:40:19.414Z,103246.13
2019-03-21T22:42:47.937Z,103248.20
2019-03-21T22:45:17.355Z,103255.34
2019-03-21T22:47:46.087Z,103258.02
2019-03-21T22:50:16.297Z,103260.69
2019-03-21T22:52:45.798Z,103259.02
2019-03-21T22:55:14.832Z,103258.29
2019-03-21T22:57:43.824Z,103264.23
2019-03-21T23:00:22.219Z,103257.56
2019-03-21T23:02:50.668Z,103262.91
2019-03-21T23:05:20.233Z,103263.87
2019-03-21T23:07:48.852Z,103263.52
2019-03-21T23:10:17.431Z,103258.78
2019-03-21T23:12:45.897Z,103256.11
2019-03-21T23:15:14.679Z,103263.14
2019-03-21T23:17:43.680Z,103255.97
2019-03-21T23:20:16.766Z,103257.31
2019-03-21T23:22:45.231Z,103254.78
2019-03-21T23:25:16.730Z,103255.14
2019-03-21T23:27:45.642Z,103249.80
2019-03-21T23:30:16.979Z,103242.77
2019-03-21T23:32:45.829Z,103244.11
2019-03-21T23:35:14.506Z,103234.40
2019-03-21T23:37:43.052Z,103235.23
2019-03-21T23:40:13.207Z,103223.36
2019-03-21T23:42:41.914Z,103224.20
2019-03-21T23:45:12.064Z,103226.39
2019-03-21T23:47:40.491Z,103232.20
2019-03-21T23:50:10.803Z,103225.17
2019-03-21T23:52:39.435Z,103221.06
2019-03-21T23:55:09.452Z,103217.06
2019-03-21T23:57:38.037Z,103214.39
